KFNL/FNL METAR and TAF weather

Enter ICAO airport designator
Station Type Date Time Source
KFNL METAR 2019/06/26 04:56 UTC NOAA

KFNL 260456Z AUTO 01007KT 10SM CLR 18/07 A3006 RMK AO2 SLP118 T01780072


Station Type Date Time Source
KFNL Decoded METAR 2019/06/26 04:56 UTC NOAA

Fort Collins/Loveland, Fort Collins-Loveland Municipal Airport, CO, United States (KFNL) 40-27N 105-01W
Jun 26, 2019 - 12:56 AM EDT / 2019.06.26 0456 UTC
Wind: from the N (010 degrees) at 8 MPH (7 KT):0
Visibility: 10 mile(s):0
Sky conditions: clear
Temperature: 64.0 F (17.8 C)
Dew Point: 45.0 F (7.2 C)
Relative Humidity: 49%
Pressure (altimeter): 30.06 in. Hg (1017 hPa)
ob: KFNL 260456Z AUTO 01007KT 10SM CLR 18/07 A3006 RMK AO2 SLP118 T01780072
cycle: 5

Station Type Date Time Source
KFNL TAF UTC NOAA

Error!

Example: see airport list